Time;durP1;ratioP1;P1;durP2;ratioP2;P2;SDS_P1;SDS_P2;PMS_P1;PMS_P2;Temp;Humidity;BMP_temperature;BMP_pressure;BME280_temperature;BME280_humidity;BME280_pressure;Samples;Min_cycle;Max_cycle;Signal;HPM_P1;HPM_P2
2022/09/20 00:01:22;;;;;;;7.22;1.38;;;23.00;99.90;;;;;;5051074;28;20032;-71
2022/09/20 00:03:52;;;;;;;3.58;1.55;;;23.00;99.90;;;;;;5050352;28;20485;-72
2022/09/20 00:06:21;;;;;;;3.20;1.40;;;23.00;99.90;;;;;;5050568;28;20105;-71
2022/09/20 00:08:47;;;;;;;4.80;1.58;;;22.90;99.90;;;;;;5050090;28;20481;-71
2022/09/20 00:11:25;;;;;;;4.90;1.40;;;22.90;99.90;;;;;;5050349;28;20037;-71
2022/09/20 00:13:54;;;;;;;2.65;1.30;;;22.90;99.90;;;;;;5050155;28;20028;-71
2022/09/20 00:16:30;;;;;;;4.03;1.40;;;22.80;99.90;;;;;;5049938;28;20021;-72
2022/09/20 00:18:58;;;;;;;4.30;1.60;;;22.80;99.90;;;;;;5050055;28;20390;-71
2022/09/20 00:21:27;;;;;;;5.95;1.63;;;22.80;99.90;;;;;;5049963;28;20082;-70
2022/09/20 00:23:53;;;;;;;5.60;1.70;;;22.80;99.90;;;;;;5049726;28;20118;-71
2022/09/20 00:26:20;;;;;;;6.63;1.40;;;22.80;99.90;;;;;;5049807;28;20036;-70
2022/09/20 00:28:46;;;;;;;5.85;1.52;;;22.70;99.90;;;;;;5049728;28;20127;-71
2022/09/20 00:31:13;;;;;;;4.47;1.42;;;22.70;99.90;;;;;;5049625;28;20049;-70
2022/09/20 00:36:28;;;;;;;;;;;22.70;99.90;;;;;;5050099;28;20053;-71
2022/09/20 00:38:59;;;;;;;4.68;1.60;;;22.70;99.90;;;;;;5049743;28;19905;-70
2022/09/20 00:41:26;;;;;;;6.15;1.60;;;22.60;99.90;;;;;;5049880;28;20029;-71
2022/09/20 00:43:53;;;;;;;4.35;1.52;;;22.60;99.90;;;;;;5049752;28;20032;-71
2022/09/20 00:46:34;;;;;;;4.15;1.63;;;22.60;99.90;;;;;;5049632;28;20100;-70
2022/09/20 00:49:20;;;;;;;4.63;1.75;;;22.50;99.90;;;;;;5049687;28;20025;-71
2022/09/20 00:51:51;;;;;;;6.45;1.80;;;22.40;99.90;;;;;;5049722;28;20039;-71
2022/09/20 00:54:19;;;;;;;5.78;1.75;;;22.30;99.90;;;;;;5049522;28;20021;-71
2022/09/20 00:56:45;;;;;;;6.90;1.70;;;22.30;99.90;;;;;;5049784;28;20062;-71
2022/09/20 00:59:32;;;;;;;7.93;1.65;;;22.30;99.90;;;;;;5049368;28;20036;-70
2022/09/20 01:02:13;;;;;;;5.18;1.52;;;22.30;99.90;;;;;;5049561;28;20084;-71
2022/09/20 01:04:41;;;;;;;6.47;1.80;;;22.30;99.90;;;;;;5052708;28;20029;-71
2022/09/20 01:07:09;;;;;;;4.53;1.92;;;22.30;99.90;;;;;;5053806;28;20028;-72
2022/09/20 01:09:35;;;;;;;7.63;2.03;;;22.30;99.90;;;;;;5053588;28;20082;-71
2022/09/20 01:12:08;;;;;;;6.57;1.92;;;22.40;99.90;;;;;;5053236;28;20037;-70
2022/09/20 01:14:34;;;;;;;4.50;1.80;;;22.40;99.90;;;;;;5053532;28;20156;-71
2022/09/20 01:17:04;;;;;;;4.43;1.75;;;22.40;99.90;;;;;;5053347;28;20503;-71
2022/09/20 01:19:47;;;;;;;6.05;2.03;;;22.40;99.90;;;;;;5053620;28;20045;-71
2022/09/20 01:22:31;;;;;;;7.40;2.33;;;22.40;99.90;;;;;;5053644;28;20041;-71
2022/09/20 01:25:07;;;;;;;6.05;2.40;;;22.40;99.90;;;;;;5053356;28;20021;-71
2022/09/20 01:27:45;;;;;;;6.72;2.35;;;22.40;99.90;;;;;;5053327;28;20125;-71
2022/09/20 01:30:17;;;;;;;6.05;2.20;;;22.40;99.90;;;;;;5053168;28;20192;-71
2022/09/20 01:33:08;;;;;;;8.38;2.50;;;22.40;99.90;;;;;;5052693;28;20379;-71
2022/09/20 01:35:35;;;;;;;6.40;2.33;;;22.50;99.90;;;;;;5052948;28;20473;-70
2022/09/20 01:38:14;;;;;;;9.13;2.45;;;22.50;99.90;;;;;;5052838;28;20033;-71
2022/09/20 01:40:50;;;;;;;4.72;2.30;;;22.50;99.90;;;;;;5053237;28;20195;-71
2022/09/20 01:43:34;;;;;;;10.20;3.03;;;22.50;99.90;;;;;;5053022;28;20036;-71
2022/09/20 01:46:27;;;;;;;5.22;2.05;;;22.60;99.90;;;;;;5052966;28;20033;-71
2022/09/20 01:49:16;;;;;;;7.93;2.53;;;22.60;99.90;;;;;;5052905;28;20025;-71
2022/09/20 01:52:09;;;;;;;6.68;2.25;;;22.70;99.90;;;;;;5052801;28;20060;-71
2022/09/20 01:54:56;;;;;;;7.00;3.00;;;22.70;99.90;;;;;;5052829;28;20425;-71
2022/09/20 01:57:37;;;;;;;5.43;2.40;;;22.70;99.90;;;;;;5052482;28;20016;-70
2022/09/20 02:00:18;;;;;;;4.93;2.35;;;22.70;99.90;;;;;;5052031;28;20074;-70
2022/09/20 02:02:59;;;;;;;6.70;2.35;;;22.80;99.90;;;;;;5052316;28;20033;-70
2022/09/20 02:05:50;;;;;;;9.48;2.60;;;22.80;99.90;;;;;;5050889;28;20032;-70
2022/09/20 02:08:30;;;;;;;6.20;2.63;;;22.70;99.90;;;;;;5052212;28;20025;-70
2022/09/20 02:11:11;;;;;;;9.25;2.67;;;22.80;99.90;;;;;;5052138;28;20175;-70
2022/09/20 02:13:57;;;;;;;9.27;2.75;;;22.70;99.90;;;;;;5052107;28;20154;-70
2022/09/20 02:16:48;;;;;;;9.48;2.95;;;22.60;99.90;;;;;;5050917;28;20065;-70
2022/09/20 02:19:31;;;;;;;5.72;2.42;;;22.60;99.90;;;;;;5051749;28;20033;-71
2022/09/20 02:22:28;;;;;;;10.43;2.45;;;22.50;99.90;;;;;;5051720;28;20098;-70
2022/09/20 02:25:11;;;;;;;7.22;3.00;;;22.50;99.90;;;;;;5051475;28;20029;-70
2022/09/20 02:28:05;;;;;;;6.57;3.00;;;22.50;99.90;;;;;;5051792;28;20381;-70
2022/09/20 02:30:55;;;;;;;7.45;3.25;;;22.60;99.90;;;;;;5050213;28;20457;-70
2022/09/20 02:33:56;;;;;;;8.65;2.88;;;22.60;99.90;;;;;;5051673;28;20048;-70
2022/09/20 02:36:50;;;;;;;8.35;2.95;;;22.70;99.90;;;;;;5051814;28;20032;-71
2022/09/20 02:39:22;;;;;;;9.63;3.10;;;22.70;99.90;;;;;;5051653;28;20037;-70
2022/09/20 02:42:03;;;;;;;6.43;2.45;;;22.70;99.90;;;;;;5051269;28;20539;-70
2022/09/20 02:44:52;;;;;;;9.77;3.15;;;22.70;99.90;;;;;;5051543;28;20549;-72
2022/09/20 02:47:26;;;;;;;11.25;2.53;;;22.70;99.90;;;;;;5049875;28;20070;-71
2022/09/20 02:50:17;;;;;;;5.90;2.80;;;22.70;99.90;;;;;;5051616;28;20103;-71
2022/09/20 02:53:09;;;;;;;8.93;2.95;;;22.70;99.90;;;;;;5051479;28;20040;-71
2022/09/20 02:55:49;;;;;;;6.85;2.47;;;22.80;99.90;;;;;;5042824;28;20044;-71
2022/09/20 02:58:45;;;;;;;6.18;2.10;;;22.80;99.90;;;;;;5052006;28;20036;-71
2022/09/20 03:01:23;;;;;;;7.78;2.20;;;22.80;99.90;;;;;;5051977;28;20029;-71
2022/09/20 03:04:02;;;;;;;6.07;1.90;;;22.90;99.90;;;;;;5049677;28;20040;-71
2022/09/20 03:06:47;;;;;;;4.28;1.70;;;22.80;99.90;;;;;;5051895;28;20028;-71
2022/09/20 03:09:43;;;;;;;5.32;1.90;;;22.90;99.90;;;;;;5051985;28;20025;-72
2022/09/20 03:12:35;;;;;;;6.82;2.17;;;22.90;99.90;;;;;;5052236;28;20033;-70
2022/09/20 03:15:41;;;;;;;4.47;1.30;;;22.90;99.90;;;;;;5052346;28;20044;-71
2022/09/20 03:18:16;;;;;;;4.22;1.50;;;22.90;99.90;;;;;;5052191;28;20021;-71
2022/09/20 03:21:32;;;;;;;4.07;1.50;;;22.90;99.90;;;;;;5051985;28;20043;-71
2022/09/20 03:24:25;;;;;;;4.78;1.63;;;23.00;99.90;;;;;;5030790;28;20041;-71
2022/09/20 03:27:12;;;;;;;9.50;2.55;;;23.00;99.90;;;;;;5031367;28;20091;-71
2022/09/20 03:29:49;;;;;;;7.10;2.85;;;23.00;99.90;;;;;;5030970;28;20067;-71
2022/09/20 03:32:36;;;;;;;7.28;2.90;;;23.00;99.90;;;;;;5030857;28;20473;-71
2022/09/20 03:35:21;;;;;;;6.40;2.38;;;23.00;99.90;;;;;;5030885;28;20364;-71
2022/09/20 03:38:14;;;;;;;10.10;2.40;;;23.00;99.90;;;;;;5030974;28;20160;-71
2022/09/20 03:40:52;;;;;;;6.72;2.25;;;22.90;99.90;;;;;;5031189;28;20257;-71
2022/09/20 03:43:29;;;;;;;4.90;2.35;;;22.90;99.90;;;;;;5031266;28;20160;-71
2022/09/20 03:46:13;;;;;;;9.25;2.80;;;22.90;99.90;;;;;;5031093;28;20045;-71
2022/09/20 03:48:58;;;;;;;5.07;2.45;;;22.90;99.90;;;;;;5030622;28;20033;-71
2022/09/20 03:51:32;;;;;;;7.78;2.15;;;22.90;99.90;;;;;;5030739;28;20045;-70
2022/09/20 03:54:03;;;;;;;7.82;2.45;;;22.80;99.90;;;;;;5030642;28;20160;-70
2022/09/20 03:56:53;;;;;;;11.43;2.47;;;22.70;99.90;;;;;;5030193;28;20056;-70
2022/09/20 03:59:28;;;;;;;8.77;2.33;;;22.70;99.90;;;;;;5042108;28;20029;-70
2022/09/20 04:02:06;;;;;;;9.38;2.75;;;22.60;99.90;;;;;;5052729;28;20031;-70
2022/09/20 04:04:59;;;;;;;7.95;2.95;;;22.60;99.90;;;;;;5052665;28;20028;-72
2022/09/20 04:07:46;;;;;;;6.88;2.15;;;22.50;99.90;;;;;;5052616;28;20052;-71
2022/09/20 04:10:39;;;;;;;7.57;2.40;;;22.40;99.90;;;;;;5052445;28;20338;-72
2022/09/20 04:13:37;;;;;;;5.35;2.40;;;22.40;99.90;;;;;;5052445;28;20050;-71
2022/09/20 04:16:27;;;;;;;9.25;2.58;;;22.40;99.90;;;;;;5052401;28;20128;-71
2022/09/20 04:19:00;;;;;;;6.40;2.22;;;22.20;99.90;;;;;;5053323;28;20480;-70
2022/09/20 04:22:00;;;;;;;9.80;3.00;;;22.20;99.90;;;;;;5052940;28;20086;-70
2022/09/20 04:24:46;;;;;;;7.93;2.33;;;22.10;99.90;;;;;;5030968;28;20038;-70
2022/09/20 04:27:24;;;;;;;11.45;2.70;;;22.00;99.90;;;;;;5030911;28;20087;-70
2022/09/20 04:30:14;;;;;;;10.85;2.80;;;22.00;99.90;;;;;;5030959;28;20040;-70
2022/09/20 04:33:00;;;;;;;7.50;2.80;;;21.90;99.90;;;;;;5030396;28;20061;-70
2022/09/20 04:38:34;;;;;;;7.78;2.90;;;21.80;99.90;;;;;;5030208;28;20094;-71
2022/09/20 04:41:21;;;;;;;7.15;2.60;;;21.70;99.90;;;;;;5030442;28;20025;-70
2022/09/20 04:44:15;;;;;;;7.60;2.95;;;21.70;99.90;;;;;;5030435;28;20147;-71
2022/09/20 04:47:11;;;;;;;10.73;2.67;;;21.80;99.90;;;;;;5030777;28;20034;-70
2022/09/20 04:49:58;;;;;;;9.10;3.00;;;21.80;99.90;;;;;;5030549;28;20079;-70
2022/09/20 04:52:54;;;;;;;6.68;2.35;;;21.80;99.90;;;;;;5030518;28;20398;-70
2022/09/20 04:55:29;;;;;;;;;;;21.90;99.90;;;;;;5014024;28;20026;-70
2022/09/20 04:57:55;;;;;;;9.85;2.42;;;22.00;99.90;;;;;;5030491;28;19947;-70
2022/09/20 05:00:23;;;;;;;9.80;2.35;;;22.00;99.90;;;;;;5044217;28;20041;-70
2022/09/20 05:03:00;;;;;;;9.10;2.88;;;22.00;99.90;;;;;;5052478;28;20025;-72
2022/09/20 05:05:47;;;;;;;9.70;2.17;;;22.00;99.90;;;;;;5052538;28;20029;-70
2022/09/20 05:08:39;;;;;;;9.52;2.78;;;22.00;99.90;;;;;;5050879;28;20044;-70
2022/09/20 05:11:17;;;;;;;7.82;2.97;;;22.10;99.90;;;;;;5051790;28;20029;-70
2022/09/20 05:13:59;;;;;;;7.43;2.67;;;22.20;99.90;;;;;;5051859;28;20040;-71
2022/09/20 05:17:05;;;;;;;9.13;2.58;;;22.30;99.90;;;;;;5051467;28;20052;-71
2022/09/20 05:19:57;;;;;;;10.90;2.78;;;22.40;99.90;;;;;;5052292;28;20071;-71
2022/09/20 05:22:57;;;;;;;9.13;2.53;;;22.60;99.90;;;;;;5052446;28;20029;-72
2022/09/20 05:25:44;;;;;;;7.05;2.53;;;22.70;99.90;;;;;;5052030;28;20022;-71
2022/09/20 05:28:36;;;;;;;8.35;2.40;;;22.70;99.90;;;;;;5052257;28;20033;-72
2022/09/20 05:31:15;;;;;;;8.25;2.47;;;22.80;99.90;;;;;;5039746;28;20405;-70
2022/09/20 05:34:00;;;;;;;12.02;3.13;;;23.00;99.90;;;;;;5051194;28;20070;-71
2022/09/20 05:36:42;;;;;;;9.43;2.63;;;23.10;99.90;;;;;;5051255;28;20477;-71
2022/09/20 05:39:36;;;;;;;8.68;2.60;;;23.20;99.90;;;;;;5049912;28;20025;-70
2022/09/20 05:42:27;;;;;;;9.70;2.70;;;23.40;99.90;;;;;;5041274;28;20398;-68
2022/09/20 05:45:09;;;;;;;11.07;2.72;;;24.00;99.90;;;;;;5031510;28;20060;-69
2022/09/20 05:47:51;;;;;;;12.82;3.30;;;24.80;99.90;;;;;;5039502;28;20026;-69
2022/09/20 05:50:39;;;;;;;16.45;3.33;;;25.40;99.90;;;;;;5032942;28;20477;-69
2022/09/20 05:53:28;;;;;;;17.20;3.33;;;26.10;99.90;;;;;;5034329;28;20033;-72
2022/09/20 05:56:19;;;;;;;13.48;2.50;;;26.90;99.90;;;;;;5014066;28;20044;-71
2022/09/20 05:59:46;;;;;;;11.68;2.67;;;27.60;99.90;;;;;;5034478;28;20034;-72
2022/09/20 06:02:27;;;;;;;27.65;3.88;;;27.90;99.90;;;;;;5031784;28;20124;-72
2022/09/20 06:05:17;;;;;;;21.30;2.83;;;28.20;99.90;;;;;;5032035;28;20175;-72
2022/09/20 06:07:52;;;;;;;6.15;2.00;;;28.60;99.90;;;;;;5032925;28;20033;-72
2022/09/20 06:10:50;;;;;;;11.05;2.83;;;28.70;99.90;;;;;;5032834;28;20030;-74
2022/09/20 06:13:41;;;;;;;7.07;2.45;;;28.70;99.90;;;;;;5033475;28;20041;-71
2022/09/20 06:16:20;;;;;;;10.27;2.80;;;28.80;99.90;;;;;;5034075;28;20029;-73
2022/09/20 06:19:10;;;;;;;11.45;2.92;;;28.80;99.90;;;;;;5033853;28;20025;-74
2022/09/20 06:21:51;;;;;;;10.15;3.20;;;28.30;99.90;;;;;;5032775;28;20029;-73
2022/09/20 06:25:00;;;;;;;12.63;3.25;;;28.10;99.90;;;;;;5033352;28;20485;-73
2022/09/20 06:27:50;;;;;;;12.82;2.78;;;27.80;99.90;;;;;;4994137;28;20112;-75
2022/09/20 06:30:55;;;;;;;13.43;2.80;;;27.90;99.90;;;;;;4994364;28;20022;-74
2022/09/20 06:33:27;;;;;;;10.35;2.63;;;27.80;99.90;;;;;;4990700;28;20283;-76
2022/09/20 06:42:09;;;;;;;9.05;2.42;;;29.50;99.90;;;;;;4992839;28;20124;-72
2022/09/20 06:44:40;;;;;;;9.43;3.30;;;30.60;99.90;;;;;;4992119;28;20034;-73
2022/09/20 06:47:09;;;;;;;9.13;2.30;;;30.90;99.90;;;;;;4992483;28;20032;-73
2022/09/20 06:49:35;;;;;;;10.02;2.58;;;31.20;99.90;;;;;;4992790;28;20121;-73
2022/09/20 06:52:04;;;;;;;8.20;2.45;;;31.90;99.90;;;;;;4992248;28;20038;-73
2022/09/20 06:54:31;;;;;;;12.55;3.30;;;32.90;99.90;;;;;;4992378;28;20495;-74
2022/09/20 06:56:57;;;;;;;8.75;2.17;;;33.40;99.90;;;;;;4975909;28;20065;-72
2022/09/20 06:59:24;;;;;;;9.43;2.58;;;33.50;99.60;;;;;;4975641;28;20027;-72
2022/09/20 07:01:49;;;;;;;;;;;33.60;99.20;;;;;;5016003;28;20506;-73
2022/09/20 07:04:15;;;;;;;7.85;2.25;;;33.80;99.20;;;;;;5033881;28;19905;-72
2022/09/20 07:06:41;;;;;;;8.43;2.30;;;34.40;98.70;;;;;;5033959;28;20032;-74
2022/09/20 07:09:10;;;;;;;6.88;2.15;;;34.80;98.30;;;;;;5033549;28;20096;-73
2022/09/20 07:11:36;;;;;;;7.10;2.50;;;35.60;97.80;;;;;;5033432;28;20040;-73
2022/09/20 07:14:02;;;;;;;10.07;2.60;;;36.60;97.10;;;;;;5033953;28;20029;-73
2022/09/20 07:16:28;;;;;;;7.47;2.42;;;36.80;96.30;;;;;;5033910;28;20109;-73
2022/09/20 07:18:55;;;;;;;8.43;2.65;;;37.10;96.20;;;;;;5033464;28;20509;-74
2022/09/20 07:21:21;;;;;;;10.73;2.50;;;37.30;95.90;;;;;;5033899;28;20021;-73
2022/09/20 07:23:48;;;;;;;9.20;2.30;;;37.10;95.70;;;;;;5034023;28;20018;-74
2022/09/20 07:26:20;;;;;;;11.07;3.05;;;36.90;95.70;;;;;;5033248;28;20447;-72
2022/09/20 07:28:48;;;;;;;16.27;3.95;;;36.40;96.10;;;;;;5032942;28;20104;-73
2022/09/20 07:31:15;;;;;;;9.52;3.30;;;35.40;96.40;;;;;;5031254;28;20197;-73
2022/09/20 07:33:41;;;;;;;8.55;2.92;;;35.20;97.10;;;;;;5033353;28;20033;-73
2022/09/20 07:36:08;;;;;;;11.43;2.60;;;34.90;97.20;;;;;;5033074;28;20029;-73
2022/09/20 07:38:34;;;;;;;6.68;2.85;;;34.50;97.40;;;;;;5033025;28;20033;-73
2022/09/20 07:41:01;;;;;;;7.35;2.60;;;34.10;97.80;;;;;;5033523;28;20092;-73
2022/09/20 07:43:29;;;;;;;8.98;2.70;;;34.00;97.90;;;;;;5031672;28;20061;-72
2022/09/20 07:45:56;;;;;;;11.80;3.10;;;33.80;98.20;;;;;;5031250;28;20377;-72
2022/09/20 07:48:29;;;;;;;9.77;3.28;;;33.60;98.20;;;;;;5032295;28;20029;-73
2022/09/20 07:51:00;;;;;;;10.05;2.70;;;33.30;98.40;;;;;;5030611;28;20039;-73
2022/09/20 07:53:27;;;;;;;11.15;2.90;;;33.00;98.90;;;;;;5032879;28;20442;-73
2022/09/20 07:56:12;;;;;;;11.60;3.17;;;32.60;99.10;;;;;;5031793;28;20024;-73
2022/09/20 07:58:38;;;;;;;;;;;32.70;99.30;;;;;;5032419;28;20145;-73
2022/09/20 08:01:08;;;;;;;12.32;3.55;;;32.80;99.00;;;;;;5031620;28;19972;-74
2022/09/20 08:03:56;;;;;;;10.13;3.50;;;32.80;99.30;;;;;;5031378;28;20104;-73
2022/09/20 08:06:22;;;;;;;8.82;2.60;;;32.70;99.00;;;;;;5031870;28;20017;-73
2022/09/20 08:09:04;;;;;;;9.05;2.45;;;32.70;99.00;;;;;;5031386;28;20033;-74
2022/09/20 08:11:30;;;;;;;6.53;2.50;;;32.90;98.90;;;;;;5029706;28;20214;-74
2022/09/20 08:13:58;;;;;;;;;;;32.90;98.70;;;;;;5030781;28;20071;-73
2022/09/20 08:16:25;;;;;;;7.00;2.33;;;32.40;99.30;;;;;;5030797;28;19983;-73
2022/09/20 08:18:57;;;;;;;5.60;1.90;;;32.10;99.90;;;;;;5030542;28;20110;-73
2022/09/20 08:21:30;;;;;;;7.68;2.42;;;32.10;99.90;;;;;;5032454;28;20099;-74
2022/09/20 08:23:57;;;;;;;9.25;2.60;;;32.30;99.90;;;;;;5032060;28;20477;-73
2022/09/20 08:26:25;;;;;;;10.40;2.22;;;32.40;99.90;;;;;;5032602;28;20025;-74
2022/09/20 08:28:53;;;;;;;7.38;2.45;;;32.40;99.80;;;;;;5032111;28;20083;-73
2022/09/20 08:31:22;;;;;;;9.82;2.25;;;32.40;99.50;;;;;;5031949;28;20103;-74
2022/09/20 08:33:50;;;;;;;7.20;2.33;;;32.50;99.70;;;;;;5032271;28;20021;-73
2022/09/20 08:36:26;;;;;;;11.43;2.40;;;32.30;99.90;;;;;;5032405;28;20109;-73
2022/09/20 08:38:52;;;;;;;5.78;2.10;;;32.10;99.90;;;;;;5032347;28;20104;-73
2022/09/20 08:41:30;;;;;;;10.70;2.10;;;32.10;99.90;;;;;;5032488;28;20037;-74
2022/09/20 08:44:25;;;;;;;6.65;1.88;;;32.10;99.90;;;;;;5032275;28;20080;-74
2022/09/20 08:47:12;;;;;;;11.43;2.20;;;32.00;99.90;;;;;;5030761;28;20124;-73
2022/09/20 08:49:39;;;;;;;8.73;2.10;;;31.50;99.90;;;;;;5032034;28;20147;-74
2022/09/20 08:52:10;;;;;;;5.88;1.70;;;31.40;99.90;;;;;;5031658;28;20374;-73
2022/09/20 08:54:36;;;;;;;7.00;1.80;;;31.00;99.90;;;;;;5032345;28;20358;-73
2022/09/20 08:57:08;;;;;;;9.95;2.28;;;30.50;99.90;;;;;;5032064;28;20099;-73
2022/09/20 08:59:34;;;;;;;6.60;2.00;;;30.30;99.90;;;;;;5031955;28;20022;-74
2022/09/20 09:02:00;;;;;;;8.23;2.15;;;30.10;99.90;;;;;;5030624;28;20080;-74
2022/09/20 09:04:34;;;;;;;8.35;1.90;;;30.40;99.90;;;;;;5032357;28;20072;-74
2022/09/20 09:07:01;;;;;;;8.95;1.95;;;30.50;99.90;;;;;;5030465;28;20036;-73
2022/09/20 09:09:28;;;;;;;12.00;2.38;;;30.30;99.90;;;;;;5031600;28;20026;-73
2022/09/20 09:11:57;;;;;;;6.80;1.90;;;30.40;99.90;;;;;;5031918;28;20067;-72
2022/09/20 09:14:48;;;;;;;12.85;2.38;;;30.60;99.90;;;;;;5029922;28;20037;-73
2022/09/20 09:17:17;;;;;;;8.50;1.80;;;30.80;99.90;;;;;;5031515;28;20029;-72
2022/09/20 09:20:17;;;;;;;7.22;2.00;;;30.50;99.90;;;;;;5031668;28;20470;-73
2022/09/20 09:22:47;;;;;;;7.65;2.00;;;30.40;99.90;;;;;;5029811;28;20033;-74
2022/09/20 09:25:14;;;;;;;7.13;2.15;;;30.30;99.90;;;;;;5033151;28;20032;-73
2022/09/20 09:27:55;;;;;;;;;;;30.10;99.90;;;;;;5036428;28;20021;-73
2022/09/20 09:30:32;;;;;;;6.47;2.00;;;30.10;99.90;;;;;;5035076;28;19905;-73
2022/09/20 09:33:23;;;;;;;9.38;2.03;;;30.30;99.90;;;;;;5035230;28;20046;-74
2022/09/20 09:36:08;;;;;;;8.18;1.98;;;30.40;99.90;;;;;;5035578;28;20026;-73
2022/09/20 09:38:37;;;;;;;5.85;2.00;;;30.50;99.90;;;;;;5035327;28;20041;-73
2022/09/20 09:41:07;;;;;;;7.88;1.88;;;30.30;99.90;;;;;;5035289;28;20482;-73
2022/09/20 09:43:36;;;;;;;4.95;1.80;;;30.20;99.90;;;;;;5035219;28;20017;-74
2022/09/20 09:46:21;;;;;;;5.65;1.92;;;30.20;99.90;;;;;;5035451;28;20104;-73
2022/09/20 09:49:06;;;;;;;;;;;30.20;99.90;;;;;;5035522;28;20449;-73
2022/09/20 09:51:33;;;;;;;13.65;2.30;;;29.60;99.90;;;;;;5035073;28;19917;-74
2022/09/20 09:54:00;;;;;;;9.70;2.15;;;29.70;99.90;;;;;;5034795;28;20048;-73
2022/09/20 09:56:32;;;;;;;8.48;2.17;;;29.70;99.90;;;;;;5034602;28;20029;-73
2022/09/20 09:59:46;;;;;;;14.38;2.67;;;30.00;99.90;;;;;;5035233;28;20057;-73
2022/09/20 10:02:34;;;;;;;7.35;1.83;;;30.30;99.90;;;;;;5041222;28;20090;-73
2022/09/20 10:05:28;;;;;;;6.07;2.15;;;30.40;99.90;;;;;;5034621;28;20018;-73
2022/09/20 10:08:07;;;;;;;13.52;2.55;;;30.30;99.90;;;;;;5034828;28;20520;-73
2022/09/20 10:11:05;;;;;;;10.48;2.33;;;30.30;99.90;;;;;;5035040;28;20021;-74
2022/09/20 10:13:57;;;;;;;10.60;2.78;;;30.50;99.90;;;;;;5034744;28;20109;-73
2022/09/20 10:16:27;;;;;;;8.38;2.08;;;30.50;99.90;;;;;;5034491;28;20104;-74
2022/09/20 10:19:20;;;;;;;7.10;2.13;;;30.20;99.90;;;;;;5033954;28;20021;-73
2022/09/20 10:22:01;;;;;;;9.85;1.90;;;30.50;99.90;;;;;;5032951;28;20033;-74
2022/09/20 10:24:58;;;;;;;8.70;2.30;;;30.70;99.90;;;;;;5035067;28;20033;-73
2022/09/20 10:27:36;;;;;;;8.43;2.13;;;30.90;99.90;;;;;;5035029;28;20025;-74
2022/09/20 10:30:24;;;;;;;6.28;1.90;;;30.80;99.90;;;;;;5033183;28;20029;-73
2022/09/20 10:33:11;;;;;;;7.10;2.10;;;31.00;99.90;;;;;;5033965;28;20128;-73
2022/09/20 10:35:56;;;;;;;9.15;2.30;;;31.20;99.90;;;;;;5033537;28;20041;-74
2022/09/20 10:39:00;;;;;;;8.73;1.98;;;31.20;99.90;;;;;;5034546;28;20108;-73
2022/09/20 10:45:06;;;;;;;13.15;2.10;;;31.50;99.90;;;;;;5012768;28;20109;-72
2022/09/20 10:47:55;;;;;;;9.77;2.25;;;31.30;99.90;;;;;;5012421;28;20034;-73
2022/09/20 10:50:35;;;;;;;10.18;1.90;;;31.40;99.90;;;;;;5012081;28;20430;-73
2022/09/20 10:53:26;;;;;;;12.15;2.17;;;31.30;99.90;;;;;;5011675;28;20053;-74
2022/09/20 10:56:13;;;;;;;11.35;2.20;;;31.20;99.90;;;;;;4995519;28;20037;-74
2022/09/20 10:58:58;;;;;;;6.38;1.80;;;31.30;99.90;;;;;;4995318;28;20065;-73
2022/09/20 11:01:37;;;;;;;7.05;2.03;;;31.40;99.90;;;;;;4995278;28;20088;-74
2022/09/20 11:04:06;;;;;;;7.28;2.10;;;31.50;99.90;;;;;;5010400;28;20077;-73
2022/09/20 11:06:54;;;;;;;13.55;2.45;;;31.40;99.90;;;;;;4994643;28;20033;-74
2022/09/20 11:09:26;;;;;;;9.35;1.85;;;31.40;99.90;;;;;;4994840;28;20025;-74
2022/09/20 11:12:02;;;;;;;9.77;1.98;;;31.50;99.90;;;;;;5011890;28;20073;-73
2022/09/20 11:14:53;;;;;;;7.43;1.75;;;31.40;99.90;;;;;;5010977;28;20128;-73
2022/09/20 11:17:27;;;;;;;7.88;2.05;;;31.50;99.90;;;;;;5017487;28;20156;-73
2022/09/20 11:20:16;;;;;;;6.90;2.10;;;31.50;99.90;;;;;;5033606;28;20382;-73
2022/09/20 11:22:49;;;;;;;7.25;2.13;;;31.50;99.90;;;;;;5034091;28;20044;-73
2022/09/20 11:25:50;;;;;;;9.07;2.05;;;31.40;99.90;;;;;;5033227;28;20030;-74
2022/09/20 11:28:32;;;;;;;6.90;1.70;;;31.30;99.90;;;;;;5033789;28;20029;-74
2022/09/20 11:31:26;;;;;;;6.78;2.00;;;31.00;99.90;;;;;;5033553;28;20485;-73
2022/09/20 11:34:13;;;;;;;6.18;1.63;;;31.10;99.90;;;;;;5033447;28;20497;-74
2022/09/20 11:36:56;;;;;;;9.50;1.70;;;31.20;99.90;;;;;;5032113;28;20112;-73
2022/09/20 11:39:25;;;;;;;11.52;2.10;;;31.00;99.90;;;;;;5033824;28;20427;-73
2022/09/20 11:41:55;;;;;;;6.72;1.90;;;31.00;99.90;;;;;;5031597;28;20434;-73
2022/09/20 11:44:22;;;;;;;5.15;1.90;;;31.00;99.90;;;;;;5033011;28;20108;-72
2022/09/20 11:47:24;;;;;;;9.48;2.65;;;31.10;99.90;;;;;;5033089;28;20040;-72
2022/09/20 11:50:04;;;;;;;15.68;2.13;;;31.30;99.90;;;;;;5033261;28;20100;-72
2022/09/20 11:52:56;;;;;;;7.10;2.00;;;31.40;99.90;;;;;;5033168;28;20049;-73
2022/09/20 11:55:50;;;;;;;5.30;1.83;;;31.10;99.90;;;;;;5033703;28;20469;-73
2022/09/20 11:58:21;;;;;;;7.00;1.83;;;31.00;99.90;;;;;;5033544;28;20038;-73
2022/09/20 12:00:53;;;;;;;11.90;3.08;;;31.00;99.90;;;;;;5033000;28;20390;-73
2022/09/20 12:03:36;;;;;;;10.93;2.25;;;30.90;99.90;;;;;;5033574;28;20013;-73
2022/09/20 12:06:07;;;;;;;10.05;2.22;;;30.90;99.90;;;;;;5033597;28;20025;-74
2022/09/20 12:08:37;;;;;;;8.05;1.90;;;30.90;99.90;;;;;;5033452;28;20558;-73
2022/09/20 12:11:09;;;;;;;6.07;1.73;;;31.00;99.90;;;;;;5033190;28;20033;-72
2022/09/20 12:13:41;;;;;;;5.43;1.70;;;31.20;99.90;;;;;;5033060;28;20037;-74
2022/09/20 12:16:17;;;;;;;10.07;2.00;;;31.40;99.90;;;;;;5033082;28;20018;-73
2022/09/20 12:19:01;;;;;;;10.55;2.00;;;31.50;99.90;;;;;;5033443;28;20359;-73
2022/09/20 12:21:27;;;;;;;10.35;2.03;;;31.30;99.90;;;;;;5033650;28;20025;-73
2022/09/20 12:23:56;;;;;;;11.05;2.10;;;31.30;99.90;;;;;;5033646;28;20063;-73
2022/09/20 12:26:25;;;;;;;7.90;1.83;;;31.10;99.90;;;;;;5033609;28;20030;-73
2022/09/20 12:28:54;;;;;;;9.10;1.95;;;31.10;99.90;;;;;;5033178;28;20021;-73
2022/09/20 12:31:32;;;;;;;12.93;1.98;;;31.10;99.90;;;;;;5031475;28;20448;-73
2022/09/20 12:34:10;;;;;;;4.82;1.73;;;31.20;99.90;;;;;;5033179;28;20029;-73
2022/09/20 12:36:52;;;;;;;5.63;1.90;;;31.20;99.90;;;;;;5031653;28;20040;-73
2022/09/20 12:39:28;;;;;;;7.50;2.05;;;31.30;99.90;;;;;;5033601;28;20040;-73
2022/09/20 12:41:59;;;;;;;5.30;1.77;;;31.40;99.90;;;;;;5033552;28;20029;-73
2022/09/20 12:44:28;;;;;;;6.15;2.00;;;31.40;99.90;;;;;;5033005;28;20033;-73
2022/09/20 12:47:08;;;;;;;8.80;2.08;;;31.20;99.90;;;;;;5033507;28;20017;-73
2022/09/20 12:55:45;;;;;;;9.95;2.55;;;31.60;99.90;;;;;;5032855;28;20087;-73
2022/09/20 12:58:13;;;;;;;7.93;2.03;;;31.50;99.90;;;;;;5031034;28;20033;-73
2022/09/20 13:00:48;;;;;;;7.05;1.60;;;31.50;99.90;;;;;;5036700;28;20316;-73
2022/09/20 13:03:20;;;;;;;6.00;1.50;;;31.60;97.20;;;;;;5039326;28;20033;-73
2022/09/20 13:06:13;;;;;;;6.00;1.50;;;31.70;96.50;;;;;;5039454;28;20021;-73
2022/09/20 13:09:03;;;;;;;5.10;1.55;;;31.60;95.70;;;;;;5039415;28;20480;-73
2022/09/20 13:11:51;;;;;;;7.07;1.50;;;31.80;96.40;;;;;;5037711;28;20220;-73
2022/09/20 13:14:30;;;;;;;7.80;1.38;;;31.90;96.00;;;;;;5038876;28;20053;-72
2022/09/20 13:16:59;;;;;;;4.22;1.50;;;31.90;95.80;;;;;;5037593;28;20025;-73
2022/09/20 13:19:33;;;;;;;7.75;1.88;;;31.80;95.80;;;;;;5039415;28;20026;-73
2022/09/20 13:21:59;;;;;;;5.40;1.63;;;31.90;96.60;;;;;;5039227;28;20378;-73
2022/09/20 13:24:28;;;;;;;5.00;1.38;;;31.50;96.40;;;;;;5039305;28;20025;-73
2022/09/20 13:27:01;;;;;;;6.97;1.50;;;31.20;95.80;;;;;;5039018;28;20466;-73
2022/09/20 13:29:36;;;;;;;4.00;1.50;;;31.30;96.10;;;;;;5039267;28;20021;-73
2022/09/20 13:32:23;;;;;;;6.30;1.70;;;31.50;95.70;;;;;;5038823;28;20053;-73
2022/09/20 13:35:18;;;;;;;6.90;1.52;;;31.50;95.20;;;;;;5038889;28;20030;-73
2022/09/20 13:37:44;;;;;;;;;;;31.50;95.50;;;;;;5039413;28;20021;-72
2022/09/20 13:40:38;;;;;;;8.20;1.40;;;31.50;95.80;;;;;;5038676;28;20345;-73
2022/09/20 13:43:20;;;;;;;5.10;1.58;;;31.50;95.80;;;;;;5037822;28;20040;-73
2022/09/20 13:45:52;;;;;;;8.57;1.60;;;31.70;95.20;;;;;;5039347;28;20036;-73
2022/09/20 13:48:18;;;;;;;5.18;1.73;;;31.60;95.50;;;;;;5039357;28;20021;-73
2022/09/20 13:50:44;;;;;;;6.50;1.77;;;31.70;95.70;;;;;;5038655;28;20037;-73
2022/09/20 13:53:14;;;;;;;;;;;31.70;95.70;;;;;;5038751;28;20029;-73
2022/09/20 13:55:42;;;;;;;7.05;1.65;;;31.80;95.60;;;;;;5038252;28;19934;-73
2022/09/20 13:58:32;;;;;;;7.70;1.70;;;31.80;96.00;;;;;;5038971;28;20512;-73
2022/09/20 14:01:04;;;;;;;6.18;1.55;;;31.50;96.20;;;;;;5039152;28;20040;-73
2022/09/20 14:03:33;;;;;;;7.78;1.67;;;31.70;96.60;;;;;;5039266;28;20032;-73
2022/09/20 14:06:12;;;;;;;6.57;1.80;;;31.70;97.00;;;;;;5038442;28;20386;-73
2022/09/20 14:08:44;;;;;;;10.80;2.20;;;31.60;97.40;;;;;;5036980;28;20044;-73
2022/09/20 14:11:29;;;;;;;7.35;1.98;;;31.40;97.90;;;;;;5036830;28;20469;-72